sensor_id;sensor_type;location;lat;lon;timestamp;P1;durP1;ratioP1;P2;durP2;ratioP2
8365;SDS011;4220;42.502;24.188;2023-09-18T00:00:59;10.63;;;3.17;;
8365;SDS011;4220;42.502;24.188;2023-09-18T00:03:26;7.85;;;3.55;;
8365;SDS011;4220;42.502;24.188;2023-09-18T00:05:53;5.55;;;2.97;;
8365;SDS011;4220;42.502;24.188;2023-09-18T00:08:20;4.03;;;3.55;;
8365;SDS011;4220;42.502;24.188;2023-09-18T00:10:48;4.72;;;3.42;;
8365;SDS011;4220;42.502;24.188;2023-09-18T00:13:18;5.38;;;3.50;;
8365;SDS011;4220;42.502;24.188;2023-09-18T00:15:45;3.40;;;3.10;;
8365;SDS011;4220;42.502;24.188;2023-09-18T00:18:13;6.72;;;3.60;;
8365;SDS011;4220;42.502;24.188;2023-09-18T00:20:41;4.95;;;3.65;;
8365;SDS011;4220;42.502;24.188;2023-09-18T00:23:08;6.43;;;3.50;;
8365;SDS011;4220;42.502;24.188;2023-09-18T00:25:35;4.40;;;2.80;;
8365;SDS011;4220;42.502;24.188;2023-09-18T00:28:04;3.17;;;2.88;;
8365;SDS011;4220;42.502;24.188;2023-09-18T00:30:31;4.47;;;3.05;;
8365;SDS011;4220;42.502;24.188;2023-09-18T00:32:58;4.68;;;3.20;;
8365;SDS011;4220;42.502;24.188;2023-09-18T00:35:25;5.15;;;3.10;;
8365;SDS011;4220;42.502;24.188;2023-09-18T00:37:51;6.63;;;3.10;;
8365;SDS011;4220;42.502;24.188;2023-09-18T00:40:18;4.22;;;3.20;;
8365;SDS011;4220;42.502;24.188;2023-09-18T00:42:45;3.78;;;2.97;;
8365;SDS011;4220;42.502;24.188;2023-09-18T00:45:14;6.40;;;3.10;;
8365;SDS011;4220;42.502;24.188;2023-09-18T00:47:41;6.10;;;3.10;;
8365;SDS011;4220;42.502;24.188;2023-09-18T00:50:08;3.65;;;3.28;;
8365;SDS011;4220;42.502;24.188;2023-09-18T00:52:39;5.32;;;3.08;;
8365;SDS011;4220;42.502;24.188;2023-09-18T00:55:08;5.68;;;3.35;;
8365;SDS011;4220;42.502;24.188;2023-09-18T00:57:35;5.20;;;3.20;;
8365;SDS011;4220;42.502;24.188;2023-09-18T01:00:01;4.15;;;3.13;;
8365;SDS011;4220;42.502;24.188;2023-09-18T01:02:31;5.43;;;2.90;;
8365;SDS011;4220;42.502;24.188;2023-09-18T01:04:58;4.00;;;2.70;;
8365;SDS011;4220;42.502;24.188;2023-09-18T01:07:26;6.72;;;3.05;;
8365;SDS011;4220;42.502;24.188;2023-09-18T01:09:53;5.57;;;3.13;;
8365;SDS011;4220;42.502;24.188;2023-09-18T01:12:22;5.90;;;2.88;;
8365;SDS011;4220;42.502;24.188;2023-09-18T01:14:56;5.15;;;3.17;;
8365;SDS011;4220;42.502;24.188;2023-09-18T01:17:29;7.82;;;3.28;;
8365;SDS011;4220;42.502;24.188;2023-09-18T01:19:58;3.97;;;3.17;;
8365;SDS011;4220;42.502;24.188;2023-09-18T01:22:30;5.70;;;3.58;;
8365;SDS011;4220;42.502;24.188;2023-09-18T01:24:57;5.45;;;2.88;;
8365;SDS011;4220;42.502;24.188;2023-09-18T01:27:24;7.18;;;2.97;;
8365;SDS011;4220;42.502;24.188;2023-09-18T01:29:51;5.85;;;2.92;;
8365;SDS011;4220;42.502;24.188;2023-09-18T01:32:18;7.15;;;3.00;;
8365;SDS011;4220;42.502;24.188;2023-09-18T01:34:46;3.53;;;2.67;;
8365;SDS011;4220;42.502;24.188;2023-09-18T01:37:15;5.72;;;2.47;;
8365;SDS011;4220;42.502;24.188;2023-09-18T01:39:44;7.80;;;3.20;;
8365;SDS011;4220;42.502;24.188;2023-09-18T01:42:13;5.15;;;2.67;;
8365;SDS011;4220;42.502;24.188;2023-09-18T01:44:41;5.55;;;3.03;;
8365;SDS011;4220;42.502;24.188;2023-09-18T01:47:08;6.28;;;3.20;;
8365;SDS011;4220;42.502;24.188;2023-09-18T01:49:38;3.85;;;2.65;;
8365;SDS011;4220;42.502;24.188;2023-09-18T01:52:06;8.43;;;3.10;;
8365;SDS011;4220;42.502;24.188;2023-09-18T01:54:34;4.38;;;2.92;;
8365;SDS011;4220;42.502;24.188;2023-09-18T01:57:04;10.90;;;3.42;;
8365;SDS011;4220;42.502;24.188;2023-09-18T01:59:32;5.22;;;3.20;;
8365;SDS011;4220;42.502;24.188;2023-09-18T02:01:59;3.90;;;2.78;;
8365;SDS011;4220;42.502;24.188;2023-09-18T02:04:29;4.97;;;2.70;;
8365;SDS011;4220;42.502;24.188;2023-09-18T02:06:56;6.00;;;3.00;;
8365;SDS011;4220;42.502;24.188;2023-09-18T02:09:23;5.13;;;2.92;;
8365;SDS011;4220;42.502;24.188;2023-09-18T02:11:50;4.25;;;2.85;;
8365;SDS011;4220;42.502;24.188;2023-09-18T02:14:18;3.33;;;2.88;;
8365;SDS011;4220;42.502;24.188;2023-09-18T02:16:45;5.57;;;2.70;;
8365;SDS011;4220;42.502;24.188;2023-09-18T02:19:12;5.20;;;3.20;;
8365;SDS011;4220;42.502;24.188;2023-09-18T02:21:40;4.28;;;2.80;;
8365;SDS011;4220;42.502;24.188;2023-09-18T02:24:07;5.70;;;3.10;;
8365;SDS011;4220;42.502;24.188;2023-09-18T02:26:34;4.28;;;2.78;;
8365;SDS011;4220;42.502;24.188;2023-09-18T02:29:02;6.35;;;3.47;;
8365;SDS011;4220;42.502;24.188;2023-09-18T02:31:33;5.60;;;3.03;;
8365;SDS011;4220;42.502;24.188;2023-09-18T02:33:59;3.25;;;2.92;;
8365;SDS011;4220;42.502;24.188;2023-09-18T02:36:26;3.75;;;2.83;;
8365;SDS011;4220;42.502;24.188;2023-09-18T02:38:53;6.00;;;2.80;;
8365;SDS011;4220;42.502;24.188;2023-09-18T02:41:20;5.82;;;3.03;;
8365;SDS011;4220;42.502;24.188;2023-09-18T02:43:47;5.20;;;3.00;;
8365;SDS011;4220;42.502;24.188;2023-09-18T02:46:14;7.22;;;3.30;;
8365;SDS011;4220;42.502;24.188;2023-09-18T02:48:42;3.42;;;2.85;;
8365;SDS011;4220;42.502;24.188;2023-09-18T02:51:09;3.67;;;2.67;;
8365;SDS011;4220;42.502;24.188;2023-09-18T02:53:36;4.13;;;2.95;;
8365;SDS011;4220;42.502;24.188;2023-09-18T02:56:03;5.55;;;3.20;;
8365;SDS011;4220;42.502;24.188;2023-09-18T02:58:30;3.50;;;3.10;;
8365;SDS011;4220;42.502;24.188;2023-09-18T03:00:57;4.20;;;2.95;;
8365;SDS011;4220;42.502;24.188;2023-09-18T03:03:24;4.93;;;2.55;;
8365;SDS011;4220;42.502;24.188;2023-09-18T03:05:53;4.53;;;2.80;;
8365;SDS011;4220;42.502;24.188;2023-09-18T03:08:28;3.17;;;2.47;;
8365;SDS011;4220;42.502;24.188;2023-09-18T03:10:55;6.70;;;3.35;;
8365;SDS011;4220;42.502;24.188;2023-09-18T03:13:21;6.43;;;2.72;;
8365;SDS011;4220;42.502;24.188;2023-09-18T03:15:49;8.77;;;2.92;;
8365;SDS011;4220;42.502;24.188;2023-09-18T03:18:16;5.28;;;2.92;;
8365;SDS011;4220;42.502;24.188;2023-09-18T03:20:43;5.22;;;3.15;;
8365;SDS011;4220;42.502;24.188;2023-09-18T03:23:11;3.30;;;2.80;;
8365;SDS011;4220;42.502;24.188;2023-09-18T03:25:39;6.65;;;3.15;;
8365;SDS011;4220;42.502;24.188;2023-09-18T03:28:06;7.00;;;3.80;;
8365;SDS011;4220;42.502;24.188;2023-09-18T03:30:33;5.68;;;3.25;;
8365;SDS011;4220;42.502;24.188;2023-09-18T03:32:59;4.65;;;3.28;;
8365;SDS011;4220;42.502;24.188;2023-09-18T03:35:28;5.25;;;3.20;;
8365;SDS011;4220;42.502;24.188;2023-09-18T03:37:55;5.53;;;3.65;;
8365;SDS011;4220;42.502;24.188;2023-09-18T03:40:23;4.90;;;3.50;;
8365;SDS011;4220;42.502;24.188;2023-09-18T03:42:50;4.32;;;3.30;;
8365;SDS011;4220;42.502;24.188;2023-09-18T03:45:17;6.68;;;3.10;;
8365;SDS011;4220;42.502;24.188;2023-09-18T03:47:45;5.70;;;3.05;;
8365;SDS011;4220;42.502;24.188;2023-09-18T03:50:12;7.88;;;3.25;;
8365;SDS011;4220;42.502;24.188;2023-09-18T03:52:39;4.72;;;3.33;;
8365;SDS011;4220;42.502;24.188;2023-09-18T03:55:07;5.78;;;3.88;;
8365;SDS011;4220;42.502;24.188;2023-09-18T03:57:35;8.95;;;3.10;;
8365;SDS011;4220;42.502;24.188;2023-09-18T04:00:03;3.83;;;3.00;;
8365;SDS011;4220;42.502;24.188;2023-09-18T04:02:32;5.65;;;3.58;;
8365;SDS011;4220;42.502;24.188;2023-09-18T04:05:00;5.25;;;3.28;;
8365;SDS011;4220;42.502;24.188;2023-09-18T04:07:27;6.28;;;3.10;;
8365;SDS011;4220;42.502;24.188;2023-09-18T04:09:54;5.03;;;3.20;;
8365;SDS011;4220;42.502;24.188;2023-09-18T04:12:21;6.25;;;3.83;;
8365;SDS011;4220;42.502;24.188;2023-09-18T04:14:49;8.02;;;4.20;;
8365;SDS011;4220;42.502;24.188;2023-09-18T04:17:16;7.60;;;4.13;;
8365;SDS011;4220;42.502;24.188;2023-09-18T04:19:43;7.05;;;5.28;;
8365;SDS011;4220;42.502;24.188;2023-09-18T04:22:10;7.93;;;4.10;;
8365;SDS011;4220;42.502;24.188;2023-09-18T04:24:38;5.22;;;3.78;;
8365;SDS011;4220;42.502;24.188;2023-09-18T04:27:05;6.18;;;3.75;;
8365;SDS011;4220;42.502;24.188;2023-09-18T04:29:33;7.82;;;3.95;;
8365;SDS011;4220;42.502;24.188;2023-09-18T04:32:02;11.35;;;4.38;;
8365;SDS011;4220;42.502;24.188;2023-09-18T04:34:30;10.07;;;4.60;;
8365;SDS011;4220;42.502;24.188;2023-09-18T04:36:57;7.07;;;4.07;;
8365;SDS011;4220;42.502;24.188;2023-09-18T04:39:23;6.40;;;3.65;;
8365;SDS011;4220;42.502;24.188;2023-09-18T04:41:50;8.13;;;3.58;;
8365;SDS011;4220;42.502;24.188;2023-09-18T04:44:17;9.32;;;4.00;;
8365;SDS011;4220;42.502;24.188;2023-09-18T04:46:44;9.48;;;3.75;;
8365;SDS011;4220;42.502;24.188;2023-09-18T04:49:12;4.68;;;3.50;;
8365;SDS011;4220;42.502;24.188;2023-09-18T04:51:39;9.95;;;3.55;;
8365;SDS011;4220;42.502;24.188;2023-09-18T04:54:06;5.45;;;3.30;;
8365;SDS011;4220;42.502;24.188;2023-09-18T04:56:33;8.15;;;3.60;;
8365;SDS011;4220;42.502;24.188;2023-09-18T04:59:00;8.60;;;3.60;;
8365;SDS011;4220;42.502;24.188;2023-09-18T05:01:27;9.88;;;3.67;;
8365;SDS011;4220;42.502;24.188;2023-09-18T05:03:55;6.75;;;3.58;;
8365;SDS011;4220;42.502;24.188;2023-09-18T05:06:23;5.35;;;3.70;;
8365;SDS011;4220;42.502;24.188;2023-09-18T05:08:50;5.85;;;3.60;;
8365;SDS011;4220;42.502;24.188;2023-09-18T05:11:18;5.65;;;3.17;;
8365;SDS011;4220;42.502;24.188;2023-09-18T05:13:45;5.63;;;3.53;;
8365;SDS011;4220;42.502;24.188;2023-09-18T05:16:12;6.20;;;3.15;;
8365;SDS011;4220;42.502;24.188;2023-09-18T05:18:39;4.60;;;3.20;;
8365;SDS011;4220;42.502;24.188;2023-09-18T05:21:07;5.13;;;3.00;;
8365;SDS011;4220;42.502;24.188;2023-09-18T05:23:36;5.78;;;3.33;;
8365;SDS011;4220;42.502;24.188;2023-09-18T05:26:03;7.70;;;3.92;;
8365;SDS011;4220;42.502;24.188;2023-09-18T05:28:31;6.47;;;3.50;;
8365;SDS011;4220;42.502;24.188;2023-09-18T05:30:57;6.18;;;3.05;;
8365;SDS011;4220;42.502;24.188;2023-09-18T05:33:25;6.05;;;3.78;;
8365;SDS011;4220;42.502;24.188;2023-09-18T05:35:52;4.15;;;2.90;;
8365;SDS011;4220;42.502;24.188;2023-09-18T05:38:19;5.95;;;3.17;;
8365;SDS011;4220;42.502;24.188;2023-09-18T05:40:47;5.53;;;2.90;;
8365;SDS011;4220;42.502;24.188;2023-09-18T05:43:14;10.23;;;3.40;;
8365;SDS011;4220;42.502;24.188;2023-09-18T05:45:41;5.55;;;2.83;;
8365;SDS011;4220;42.502;24.188;2023-09-18T05:48:08;6.20;;;2.63;;
8365;SDS011;4220;42.502;24.188;2023-09-18T05:50:35;5.18;;;3.05;;
8365;SDS011;4220;42.502;24.188;2023-09-18T05:53:02;5.40;;;3.67;;
8365;SDS011;4220;42.502;24.188;2023-09-18T05:55:30;5.93;;;3.03;;
8365;SDS011;4220;42.502;24.188;2023-09-18T05:57:59;4.93;;;3.22;;
8365;SDS011;4220;42.502;24.188;2023-09-18T06:00:26;5.40;;;2.97;;
8365;SDS011;4220;42.502;24.188;2023-09-18T06:02:53;14.55;;;2.88;;
8365;SDS011;4220;42.502;24.188;2023-09-18T06:05:19;5.53;;;3.30;;
8365;SDS011;4220;42.502;24.188;2023-09-18T06:07:47;4.88;;;2.42;;
8365;SDS011;4220;42.502;24.188;2023-09-18T06:10:14;2.70;;;2.42;;
8365;SDS011;4220;42.502;24.188;2023-09-18T06:12:42;3.85;;;2.67;;
8365;SDS011;4220;42.502;24.188;2023-09-18T06:15:11;4.32;;;2.70;;
8365;SDS011;4220;42.502;24.188;2023-09-18T06:17:38;5.28;;;3.05;;
8365;SDS011;4220;42.502;24.188;2023-09-18T06:20:06;3.83;;;2.53;;
8365;SDS011;4220;42.502;24.188;2023-09-18T06:22:35;6.05;;;2.88;;
8365;SDS011;4220;42.502;24.188;2023-09-18T06:25:04;6.35;;;2.83;;
8365;SDS011;4220;42.502;24.188;2023-09-18T06:30:01;4.68;;;2.90;;
8365;SDS011;4220;42.502;24.188;2023-09-18T06:32:30;6.68;;;2.70;;
8365;SDS011;4220;42.502;24.188;2023-09-18T06:34:56;4.80;;;2.83;;
8365;SDS011;4220;42.502;24.188;2023-09-18T06:37:23;3.53;;;2.60;;
8365;SDS011;4220;42.502;24.188;2023-09-18T06:39:50;6.40;;;2.60;;
8365;SDS011;4220;42.502;24.188;2023-09-18T06:42:18;4.20;;;2.70;;
8365;SDS011;4220;42.502;24.188;2023-09-18T06:44:45;4.25;;;2.50;;
8365;SDS011;4220;42.502;24.188;2023-09-18T06:47:12;5.35;;;2.50;;
8365;SDS011;4220;42.502;24.188;2023-09-18T06:49:41;5.95;;;2.95;;
8365;SDS011;4220;42.502;24.188;2023-09-18T06:52:08;4.65;;;2.85;;
8365;SDS011;4220;42.502;24.188;2023-09-18T06:54:35;3.88;;;2.90;;
8365;SDS011;4220;42.502;24.188;2023-09-18T06:57:03;7.60;;;3.20;;
8365;SDS011;4220;42.502;24.188;2023-09-18T06:59:30;5.28;;;2.80;;
8365;SDS011;4220;42.502;24.188;2023-09-18T07:01:58;4.72;;;2.65;;
8365;SDS011;4220;42.502;24.188;2023-09-18T07:04:26;6.95;;;3.20;;
8365;SDS011;4220;42.502;24.188;2023-09-18T07:06:54;7.90;;;3.28;;
8365;SDS011;4220;42.502;24.188;2023-09-18T07:09:21;3.70;;;2.72;;
8365;SDS011;4220;42.502;24.188;2023-09-18T07:11:51;4.45;;;2.88;;
8365;SDS011;4220;42.502;24.188;2023-09-18T07:14:17;4.82;;;2.67;;
8365;SDS011;4220;42.502;24.188;2023-09-18T07:16:44;5.43;;;3.00;;
8365;SDS011;4220;42.502;24.188;2023-09-18T07:19:11;6.03;;;2.83;;
8365;SDS011;4220;42.502;24.188;2023-09-18T07:21:42;3.53;;;3.10;;
8365;SDS011;4220;42.502;24.188;2023-09-18T07:24:10;2.85;;;2.40;;
8365;SDS011;4220;42.502;24.188;2023-09-18T07:26:43;4.43;;;2.65;;
8365;SDS011;4220;42.502;24.188;2023-09-18T07:29:11;4.60;;;2.50;;
8365;SDS011;4220;42.502;24.188;2023-09-18T07:31:40;4.90;;;3.33;;
8365;SDS011;4220;42.502;24.188;2023-09-18T07:34:07;4.28;;;3.33;;
8365;SDS011;4220;42.502;24.188;2023-09-18T07:36:34;6.43;;;2.92;;
8365;SDS011;4220;42.502;24.188;2023-09-18T07:39:01;7.18;;;2.47;;
8365;SDS011;4220;42.502;24.188;2023-09-18T07:41:31;5.03;;;2.47;;
8365;SDS011;4220;42.502;24.188;2023-09-18T07:43:58;5.65;;;2.97;;
8365;SDS011;4220;42.502;24.188;2023-09-18T07:46:25;4.75;;;2.80;;
8365;SDS011;4220;42.502;24.188;2023-09-18T07:48:52;5.57;;;3.08;;
8365;SDS011;4220;42.502;24.188;2023-09-18T07:51:19;6.18;;;3.10;;
8365;SDS011;4220;42.502;24.188;2023-09-18T07:53:46;6.80;;;2.85;;
8365;SDS011;4220;42.502;24.188;2023-09-18T07:56:13;4.85;;;3.10;;
8365;SDS011;4220;42.502;24.188;2023-09-18T07:58:41;7.82;;;3.20;;
8365;SDS011;4220;42.502;24.188;2023-09-18T08:01:08;5.03;;;3.20;;
8365;SDS011;4220;42.502;24.188;2023-09-18T08:03:35;6.25;;;3.17;;
8365;SDS011;4220;42.502;24.188;2023-09-18T08:06:02;5.32;;;2.90;;
8365;SDS011;4220;42.502;24.188;2023-09-18T08:08:29;3.95;;;2.90;;
8365;SDS011;4220;42.502;24.188;2023-09-18T08:10:58;4.75;;;3.08;;
8365;SDS011;4220;42.502;24.188;2023-09-18T08:13:28;4.97;;;2.70;;
8365;SDS011;4220;42.502;24.188;2023-09-18T08:15:56;5.07;;;2.80;;
8365;SDS011;4220;42.502;24.188;2023-09-18T08:18:23;4.57;;;2.90;;
8365;SDS011;4220;42.502;24.188;2023-09-18T08:20:52;7.57;;;3.55;;
8365;SDS011;4220;42.502;24.188;2023-09-18T08:23:19;9.98;;;3.15;;
8365;SDS011;4220;42.502;24.188;2023-09-18T08:25:46;5.78;;;2.97;;
8365;SDS011;4220;42.502;24.188;2023-09-18T08:28:15;4.50;;;3.00;;
8365;SDS011;4220;42.502;24.188;2023-09-18T08:30:42;4.55;;;3.00;;
8365;SDS011;4220;42.502;24.188;2023-09-18T08:33:13;4.07;;;3.15;;
8365;SDS011;4220;42.502;24.188;2023-09-18T08:35:40;6.60;;;2.90;;
8365;SDS011;4220;42.502;24.188;2023-09-18T08:38:07;3.20;;;2.90;;
8365;SDS011;4220;42.502;24.188;2023-09-18T08:40:34;3.70;;;2.85;;
8365;SDS011;4220;42.502;24.188;2023-09-18T08:43:01;4.80;;;3.05;;
8365;SDS011;4220;42.502;24.188;2023-09-18T08:45:31;6.40;;;3.28;;
8365;SDS011;4220;42.502;24.188;2023-09-18T08:48:03;5.20;;;3.10;;
8365;SDS011;4220;42.502;24.188;2023-09-18T08:50:32;6.15;;;3.05;;
8365;SDS011;4220;42.502;24.188;2023-09-18T08:52:59;3.88;;;3.03;;
8365;SDS011;4220;42.502;24.188;2023-09-18T08:55:26;3.97;;;3.00;;
8365;SDS011;4220;42.502;24.188;2023-09-18T08:57:55;5.53;;;3.47;;
8365;SDS011;4220;42.502;24.188;2023-09-18T09:00:24;5.50;;;3.45;;
8365;SDS011;4220;42.502;24.188;2023-09-18T09:02:51;8.02;;;3.35;;
8365;SDS011;4220;42.502;24.188;2023-09-18T09:05:19;3.40;;;3.08;;
8365;SDS011;4220;42.502;24.188;2023-09-18T09:07:48;7.55;;;3.38;;
8365;SDS011;4220;42.502;24.188;2023-09-18T09:10:15;4.47;;;3.00;;
8365;SDS011;4220;42.502;24.188;2023-09-18T09:12:52;8.52;;;3.17;;
8365;SDS011;4220;42.502;24.188;2023-09-18T09:15:20;4.88;;;3.38;;
8365;SDS011;4220;42.502;24.188;2023-09-18T09:17:48;6.88;;;3.83;;
8365;SDS011;4220;42.502;24.188;2023-09-18T09:20:16;5.38;;;3.53;;
8365;SDS011;4220;42.502;24.188;2023-09-18T09:22:44;5.32;;;3.22;;
8365;SDS011;4220;42.502;24.188;2023-09-18T09:25:26;5.40;;;2.90;;
8365;SDS011;4220;42.502;24.188;2023-09-18T09:27:57;5.18;;;3.00;;
8365;SDS011;4220;42.502;24.188;2023-09-18T09:30:25;5.10;;;3.40;;
8365;SDS011;4220;42.502;24.188;2023-09-18T09:32:53;5.95;;;3.10;;
8365;SDS011;4220;42.502;24.188;2023-09-18T09:35:22;5.30;;;3.67;;
8365;SDS011;4220;42.502;24.188;2023-09-18T09:37:52;4.05;;;2.90;;
8365;SDS011;4220;42.502;24.188;2023-09-18T09:40:20;4.00;;;3.15;;
8365;SDS011;4220;42.502;24.188;2023-09-18T09:42:50;4.57;;;3.30;;
8365;SDS011;4220;42.502;24.188;2023-09-18T09:45:19;3.55;;;3.10;;
8365;SDS011;4220;42.502;24.188;2023-09-18T09:47:46;6.93;;;3.33;;
8365;SDS011;4220;42.502;24.188;2023-09-18T09:50:14;4.25;;;3.05;;
8365;SDS011;4220;42.502;24.188;2023-09-18T09:52:44;4.43;;;3.70;;
8365;SDS011;4220;42.502;24.188;2023-09-18T09:55:23;4.15;;;3.08;;
8365;SDS011;4220;42.502;24.188;2023-09-18T09:57:54;3.78;;;3.00;;
8365;SDS011;4220;42.502;24.188;2023-09-18T10:00:25;4.03;;;3.13;;
8365;SDS011;4220;42.502;24.188;2023-09-18T10:02:57;4.43;;;3.22;;
8365;SDS011;4220;42.502;24.188;2023-09-18T10:05:27;3.58;;;3.25;;
8365;SDS011;4220;42.502;24.188;2023-09-18T10:08:00;5.78;;;3.70;;
8365;SDS011;4220;42.502;24.188;2023-09-18T10:10:29;3.80;;;3.45;;
8365;SDS011;4220;42.502;24.188;2023-09-18T10:13:02;6.72;;;3.40;;
8365;SDS011;4220;42.502;24.188;2023-09-18T10:15:35;4.13;;;3.50;;
8365;SDS011;4220;42.502;24.188;2023-09-18T10:18:05;4.25;;;3.58;;
8365;SDS011;4220;42.502;24.188;2023-09-18T10:20:37;7.80;;;4.15;;
8365;SDS011;4220;42.502;24.188;2023-09-18T10:23:11;4.60;;;4.18;;
8365;SDS011;4220;42.502;24.188;2023-09-18T10:25:53;4.88;;;3.65;;
8365;SDS011;4220;42.502;24.188;2023-09-18T10:28:26;4.30;;;3.47;;
8365;SDS011;4220;42.502;24.188;2023-09-18T10:30:56;3.90;;;3.50;;
8365;SDS011;4220;42.502;24.188;2023-09-18T10:33:25;7.95;;;4.15;;
8365;SDS011;4220;42.502;24.188;2023-09-18T10:35:53;4.85;;;4.10;;
8365;SDS011;4220;42.502;24.188;2023-09-18T10:38:22;6.55;;;4.63;;
8365;SDS011;4220;42.502;24.188;2023-09-18T10:40:51;5.40;;;3.85;;
8365;SDS011;4220;42.502;24.188;2023-09-18T10:43:20;4.47;;;3.95;;
8365;SDS011;4220;42.502;24.188;2023-09-18T10:45:48;5.75;;;3.50;;
8365;SDS011;4220;42.502;24.188;2023-09-18T10:48:17;4.57;;;3.95;;
8365;SDS011;4220;42.502;24.188;2023-09-18T10:50:45;5.43;;;3.50;;
8365;SDS011;4220;42.502;24.188;2023-09-18T10:53:12;5.13;;;3.65;;
8365;SDS011;4220;42.502;24.188;2023-09-18T10:55:39;4.68;;;3.88;;
8365;SDS011;4220;42.502;24.188;2023-09-18T10:58:08;4.63;;;3.42;;
8365;SDS011;4220;42.502;24.188;2023-09-18T11:00:35;4.90;;;3.63;;
8365;SDS011;4220;42.502;24.188;2023-09-18T11:03:11;8.93;;;3.60;;
8365;SDS011;4220;42.502;24.188;2023-09-18T11:05:43;5.10;;;3.80;;
8365;SDS011;4220;42.502;24.188;2023-09-18T11:08:26;4.43;;;4.03;;
8365;SDS011;4220;42.502;24.188;2023-09-18T11:10:54;8.23;;;4.07;;
8365;SDS011;4220;42.502;24.188;2023-09-18T11:13:27;7.18;;;3.83;;
8365;SDS011;4220;42.502;24.188;2023-09-18T11:15:58;6.97;;;4.07;;
8365;SDS011;4220;42.502;24.188;2023-09-18T11:18:33;5.03;;;4.18;;
8365;SDS011;4220;42.502;24.188;2023-09-18T11:21:06;5.82;;;4.10;;
8365;SDS011;4220;42.502;24.188;2023-09-18T11:23:34;5.47;;;4.05;;
8365;SDS011;4220;42.502;24.188;2023-09-18T11:26:03;5.80;;;3.58;;
8365;SDS011;4220;42.502;24.188;2023-09-18T11:28:31;8.60;;;4.20;;
8365;SDS011;4220;42.502;24.188;2023-09-18T11:30:58;5.78;;;4.15;;
8365;SDS011;4220;42.502;24.188;2023-09-18T11:33:36;4.60;;;4.20;;
8365;SDS011;4220;42.502;24.188;2023-09-18T11:36:05;5.25;;;3.70;;
8365;SDS011;4220;42.502;24.188;2023-09-18T11:38:47;4.63;;;4.20;;
8365;SDS011;4220;42.502;24.188;2023-09-18T11:41:25;5.40;;;4.10;;
8365;SDS011;4220;42.502;24.188;2023-09-18T11:43:55;6.25;;;4.35;;
8365;SDS011;4220;42.502;24.188;2023-09-18T11:47:02;4.70;;;4.20;;
8365;SDS011;4220;42.502;24.188;2023-09-18T11:49:30;5.95;;;4.53;;
8365;SDS011;4220;42.502;24.188;2023-09-18T11:51:58;4.38;;;3.97;;
8365;SDS011;4220;42.502;24.188;2023-09-18T11:54:27;5.03;;;3.60;;
8365;SDS011;4220;42.502;24.188;2023-09-18T11:56:55;6.50;;;3.85;;
8365;SDS011;4220;42.502;24.188;2023-09-18T11:59:33;4.45;;;4.05;;
8365;SDS011;4220;42.502;24.188;2023-09-18T12:02:01;7.15;;;4.28;;
8365;SDS011;4220;42.502;24.188;2023-09-18T12:04:32;4.70;;;3.83;;
8365;SDS011;4220;42.502;24.188;2023-09-18T12:06:59;5.00;;;4.33;;
8365;SDS011;4220;42.502;24.188;2023-09-18T12:09:28;5.82;;;4.53;;
8365;SDS011;4220;42.502;24.188;2023-09-18T12:11:56;4.97;;;4.47;;
8365;SDS011;4220;42.502;24.188;2023-09-18T12:14:23;5.15;;;4.10;;
8365;SDS011;4220;42.502;24.188;2023-09-18T12:16:50;6.45;;;4.70;;
8365;SDS011;4220;42.502;24.188;2023-09-18T12:19:18;6.63;;;4.30;;
8365;SDS011;4220;42.502;24.188;2023-09-18T12:21:47;5.18;;;4.68;;
8365;SDS011;4220;42.502;24.188;2023-09-18T12:24:14;5.22;;;4.70;;
8365;SDS011;4220;42.502;24.188;2023-09-18T12:26:41;6.47;;;4.22;;
8365;SDS011;4220;42.502;24.188;2023-09-18T12:29:08;8.00;;;5.63;;
8365;SDS011;4220;42.502;24.188;2023-09-18T12:31:37;5.07;;;4.65;;
8365;SDS011;4220;42.502;24.188;2023-09-18T12:34:05;6.55;;;5.00;;
8365;SDS011;4220;42.502;24.188;2023-09-18T12:36:41;5.45;;;4.88;;
8365;SDS011;4220;42.502;24.188;2023-09-18T12:39:09;6.57;;;4.90;;
8365;SDS011;4220;42.502;24.188;2023-09-18T12:41:37;5.70;;;5.03;;
8365;SDS011;4220;42.502;24.188;2023-09-18T12:44:05;7.25;;;5.10;;
8365;SDS011;4220;42.502;24.188;2023-09-18T12:46:34;5.00;;;4.50;;
8365;SDS011;4220;42.502;24.188;2023-09-18T12:49:14;5.35;;;4.85;;
8365;SDS011;4220;42.502;24.188;2023-09-18T12:51:42;6.50;;;4.32;;
8365;SDS011;4220;42.502;24.188;2023-09-18T12:54:13;5.00;;;4.60;;
8365;SDS011;4220;42.502;24.188;2023-09-18T12:56:41;6.95;;;5.30;;
8365;SDS011;4220;42.502;24.188;2023-09-18T12:59:08;8.95;;;5.05;;
8365;SDS011;4220;42.502;24.188;2023-09-18T13:01:38;5.43;;;4.47;;
8365;SDS011;4220;42.502;24.188;2023-09-18T13:04:05;4.68;;;4.30;;
8365;SDS011;4220;42.502;24.188;2023-09-18T13:06:32;7.03;;;4.18;;
8365;SDS011;4220;42.502;24.188;2023-09-18T13:11:52;5.22;;;4.72;;
8365;SDS011;4220;42.502;24.188;2023-09-18T13:14:20;4.95;;;4.28;;
8365;SDS011;4220;42.502;24.188;2023-09-18T13:16:46;6.60;;;4.80;;
8365;SDS011;4220;42.502;24.188;2023-09-18T13:19:13;5.20;;;4.43;;
8365;SDS011;4220;42.502;24.188;2023-09-18T13:21:45;5.82;;;4.82;;
8365;SDS011;4220;42.502;24.188;2023-09-18T13:24:25;6.28;;;4.85;;
8365;SDS011;4220;42.502;24.188;2023-09-18T13:26:53;5.53;;;5.03;;
8365;SDS011;4220;42.502;24.188;2023-09-18T13:29:21;5.90;;;5.40;;
8365;SDS011;4220;42.502;24.188;2023-09-18T13:31:48;5.18;;;4.70;;
8365;SDS011;4220;42.502;24.188;2023-09-18T13:34:15;7.15;;;4.45;;
8365;SDS011;4220;42.502;24.188;2023-09-18T13:36:43;6.30;;;4.72;;
8365;SDS011;4220;42.502;24.188;2023-09-18T13:39:10;5.57;;;5.07;;
8365;SDS011;4220;42.502;24.188;2023-09-18T13:41:39;6.38;;;4.15;;
8365;SDS011;4220;42.502;24.188;2023-09-18T13:44:06;4.20;;;3.67;;
8365;SDS011;4220;42.502;24.188;2023-09-18T13:46:33;4.03;;;3.72;;
8365;SDS011;4220;42.502;24.188;2023-09-18T13:49:01;6.47;;;3.90;;
8365;SDS011;4220;42.502;24.188;2023-09-18T13:51:29;7.20;;;4.40;;
8365;SDS011;4220;42.502;24.188;2023-09-18T13:53:57;3.97;;;3.55;;
8365;SDS011;4220;42.502;24.188;2023-09-18T13:56:24;4.65;;;3.83;;
8365;SDS011;4220;42.502;24.188;2023-09-18T13:58:54;4.70;;;4.18;;
8365;SDS011;4220;42.502;24.188;2023-09-18T14:01:22;6.47;;;4.03;;
8365;SDS011;4220;42.502;24.188;2023-09-18T14:03:50;7.13;;;3.75;;
8365;SDS011;4220;42.502;24.188;2023-09-18T14:06:17;4.63;;;3.95;;
8365;SDS011;4220;42.502;24.188;2023-09-18T14:08:43;5.47;;;3.60;;
8365;SDS011;4220;42.502;24.188;2023-09-18T14:11:10;5.15;;;4.03;;
8365;SDS011;4220;42.502;24.188;2023-09-18T14:13:37;3.97;;;3.58;;
8365;SDS011;4220;42.502;24.188;2023-09-18T14:16:05;8.02;;;3.60;;
8365;SDS011;4220;42.502;24.188;2023-09-18T14:18:32;4.20;;;3.50;;
8365;SDS011;4220;42.502;24.188;2023-09-18T14:20:59;7.45;;;3.88;;
8365;SDS011;4220;42.502;24.188;2023-09-18T14:23:26;6.50;;;4.00;;
8365;SDS011;4220;42.502;24.188;2023-09-18T14:25:53;5.75;;;3.47;;
8365;SDS011;4220;42.502;24.188;2023-09-18T14:28:20;3.63;;;3.10;;
8365;SDS011;4220;42.502;24.188;2023-09-18T14:30:47;4.78;;;3.40;;
8365;SDS011;4220;42.502;24.188;2023-09-18T14:33:15;5.82;;;3.13;;
8365;SDS011;4220;42.502;24.188;2023-09-18T14:35:42;4.72;;;3.67;;
8365;SDS011;4220;42.502;24.188;2023-09-18T14:38:09;6.90;;;4.40;;
8365;SDS011;4220;42.502;24.188;2023-09-18T14:40:36;6.65;;;3.58;;
8365;SDS011;4220;42.502;24.188;2023-09-18T14:43:03;4.68;;;3.83;;
8365;SDS011;4220;42.502;24.188;2023-09-18T14:45:32;4.47;;;3.35;;
8365;SDS011;4220;42.502;24.188;2023-09-18T14:48:00;3.50;;;3.20;;
8365;SDS011;4220;42.502;24.188;2023-09-18T14:50:28;3.42;;;3.13;;
8365;SDS011;4220;42.502;24.188;2023-09-18T14:52:55;4.63;;;3.60;;
8365;SDS011;4220;42.502;24.188;2023-09-18T14:55:21;5.18;;;3.38;;
8365;SDS011;4220;42.502;24.188;2023-09-18T14:57:49;5.68;;;2.83;;
8365;SDS011;4220;42.502;24.188;2023-09-18T15:00:16;4.22;;;2.58;;
8365;SDS011;4220;42.502;24.188;2023-09-18T15:02:43;4.93;;;3.05;;
8365;SDS011;4220;42.502;24.188;2023-09-18T15:05:10;3.97;;;2.70;;
8365;SDS011;4220;42.502;24.188;2023-09-18T15:07:41;3.15;;;2.85;;
8365;SDS011;4220;42.502;24.188;2023-09-18T15:10:08;6.72;;;3.38;;
8365;SDS011;4220;42.502;24.188;2023-09-18T15:12:36;4.20;;;2.80;;